Time;durP1;ratioP1;P1;durP2;ratioP2;P2;SDS_P1;SDS_P2;PMS_P1;PMS_P2;Temp;Humidity;BMP_temperature;BMP_pressure;BME280_temperature;BME280_humidity;BME280_pressure;Samples;Min_cycle;Max_cycle;Signal;HPM_P1;HPM_P2
2024/03/04 00:00:43;;;;;;;25.92;20.17;;;9.70;99.90;;;;;;5133961;28;20042;-83
2024/03/04 00:03:12;;;;;;;27.05;19.92;;;9.70;99.90;;;;;;5115388;28;20069;-83
2024/03/04 00:05:39;;;;;;;26.90;20.40;;;9.70;99.90;;;;;;5113195;28;20034;-83
2024/03/04 00:08:04;;;;;;;24.25;19.83;;;9.70;99.90;;;;;;5106370;28;20024;-83
2024/03/04 00:10:30;;;;;;;26.80;20.40;;;9.60;99.90;;;;;;5085575;28;20388;-83
2024/03/04 00:12:57;;;;;;;27.30;20.20;;;9.60;99.90;;;;;;5091729;28;20509;-84
2024/03/04 00:15:23;;;;;;;24.83;19.95;;;9.50;99.90;;;;;;5109528;28;20134;-84
2024/03/04 00:17:52;;;;;;;27.45;20.77;;;9.50;99.90;;;;;;5110101;28;20371;-84
2024/03/04 00:20:18;;;;;;;32.00;22.60;;;9.60;99.90;;;;;;5092018;28;20503;-84
2024/03/04 00:22:47;;;;;;;29.60;21.23;;;9.50;99.90;;;;;;5110424;28;20063;-83
2024/03/04 00:25:17;;;;;;;29.45;21.70;;;9.50;99.90;;;;;;5109075;28;20024;-83
2024/03/04 00:27:43;;;;;;;33.88;23.80;;;9.60;99.90;;;;;;5110201;28;20483;-84
2024/03/04 00:30:10;;;;;;;28.15;22.88;;;9.60;99.90;;;;;;5108858;28;20412;-83
2024/03/04 00:32:36;;;;;;;28.58;22.33;;;9.60;99.90;;;;;;5109289;28;20042;-84
2024/03/04 00:35:03;;;;;;;31.25;22.55;;;9.60;99.90;;;;;;5063778;28;20122;-84
2024/03/04 00:37:29;;;;;;;28.00;22.92;;;9.70;99.90;;;;;;5096461;28;20026;-84
2024/03/04 00:39:55;;;;;;;33.67;24.73;;;9.70;99.90;;;;;;5078526;28;20027;-83
2024/03/04 00:42:22;;;;;;;30.30;24.55;;;9.70;99.90;;;;;;5078496;28;20024;-84
2024/03/04 00:44:49;;;;;;;32.15;24.20;;;9.70;99.90;;;;;;5095079;28;20032;-84
2024/03/04 00:47:14;;;;;;;29.23;22.92;;;9.70;99.90;;;;;;5095789;28;20391;-84
2024/03/04 00:49:40;;;;;;;33.47;25.35;;;9.70;99.90;;;;;;5094921;28;20028;-83
2024/03/04 00:52:06;;;;;;;32.40;23.45;;;9.70;99.90;;;;;;5095991;28;20032;-83
2024/03/04 00:54:32;;;;;;;31.20;23.02;;;9.70;99.90;;;;;;5061646;28;20028;-84
2024/03/04 00:56:57;;;;;;;31.15;23.10;;;9.70;99.90;;;;;;5095001;28;20119;-83
2024/03/04 00:59:23;;;;;;;28.20;21.58;;;9.70;99.90;;;;;;5094986;28;20431;-84
2024/03/04 01:01:52;;;;;;;26.90;20.25;;;9.70;99.90;;;;;;5094962;28;20028;-82
2024/03/04 01:04:17;;;;;;;25.15;19.15;;;9.70;99.90;;;;;;5078536;28;20408;-84
2024/03/04 01:06:43;;;;;;;25.95;20.58;;;9.80;99.90;;;;;;5061486;28;20035;-83
2024/03/04 01:09:11;;;;;;;26.02;19.17;;;9.70;99.90;;;;;;5061141;28;20028;-83
2024/03/04 01:11:37;;;;;;;26.05;18.95;;;9.70;99.90;;;;;;5096319;28;20418;-84
2024/03/04 01:14:02;;;;;;;22.77;16.77;;;9.70;99.90;;;;;;5094776;28;20027;-83
2024/03/04 01:16:28;;;;;;;22.35;17.83;;;9.70;99.90;;;;;;5078035;28;20387;-83
2024/03/04 01:18:55;;;;;;;23.05;17.90;;;9.70;99.90;;;;;;5095578;28;20028;-84
2024/03/04 01:21:21;;;;;;;24.85;18.30;;;9.80;99.90;;;;;;5096455;28;20055;-84
2024/03/04 01:23:46;;;;;;;23.58;16.60;;;9.80;99.90;;;;;;5107565;28;20056;-84
2024/03/04 01:26:13;;;;;;;25.38;19.40;;;9.80;99.90;;;;;;5102185;28;20046;-83
2024/03/04 01:28:40;;;;;;;24.08;18.98;;;9.70;99.90;;;;;;5119705;28;20005;-84
2024/03/04 01:31:07;;;;;;;25.70;18.85;;;9.70;99.90;;;;;;5118989;28;20032;-84
2024/03/04 01:33:33;;;;;;;26.55;20.60;;;9.70;99.90;;;;;;5113227;28;20066;-83
2024/03/04 01:36:00;;;;;;;25.63;20.08;;;9.60;99.90;;;;;;5094836;28;20028;-83
2024/03/04 01:38:26;;;;;;;25.75;18.83;;;9.60;99.90;;;;;;5095786;28;20028;-84
2024/03/04 01:40:52;;;;;;;24.83;17.63;;;9.60;99.90;;;;;;5077523;28;20467;-84
2024/03/04 01:43:18;;;;;;;23.80;17.88;;;9.70;99.90;;;;;;5094334;28;20032;-82
2024/03/04 01:45:44;;;;;;;20.65;16.70;;;9.70;99.90;;;;;;5076415;28;20024;-83
2024/03/04 01:48:11;;;;;;;22.63;16.58;;;9.70;99.90;;;;;;5093682;28;20035;-83
2024/03/04 01:50:41;;;;;;;20.98;16.88;;;9.70;99.90;;;;;;5094001;28;20051;-84
2024/03/04 01:53:08;;;;;;;22.52;16.40;;;9.70;99.90;;;;;;5081077;28;20028;-84
2024/03/04 01:55:42;;;;;;;23.10;17.42;;;9.70;99.90;;;;;;5081984;28;20042;-85
2024/03/04 01:58:12;;;;;;;25.70;17.40;;;9.70;99.90;;;;;;5085561;28;20020;-83
2024/03/04 02:00:44;;;;;;;23.33;17.20;;;9.70;99.90;;;;;;5093967;28;20483;-83
2024/03/04 02:03:12;;;;;;;21.15;17.10;;;9.70;99.90;;;;;;5093037;28;20051;-84
2024/03/04 02:05:40;;;;;;;21.80;16.20;;;9.70;99.90;;;;;;5081379;28;20362;-84
2024/03/04 02:08:08;;;;;;;23.63;16.33;;;9.80;99.90;;;;;;5074566;28;20047;-85
2024/03/04 02:10:33;;;;;;;23.48;15.55;;;9.70;99.90;;;;;;5082382;28;20052;-85
2024/03/04 02:12:59;;;;;;;21.38;16.90;;;9.70;99.90;;;;;;5076380;28;20068;-83
2024/03/04 02:15:25;;;;;;;21.50;16.35;;;9.80;99.90;;;;;;5056494;28;20040;-84
2024/03/04 02:17:50;;;;;;;20.15;15.63;;;9.70;99.90;;;;;;5073722;28;20035;-84
2024/03/04 02:20:19;;;;;;;19.33;15.23;;;9.70;99.90;;;;;;5092818;28;20020;-84
2024/03/04 02:22:45;;;;;;;19.80;14.02;;;9.70;99.90;;;;;;5114970;28;20073;-84
2024/03/04 02:25:11;;;;;;;19.58;15.43;;;9.80;99.90;;;;;;5078330;28;20036;-84
2024/03/04 02:27:42;;;;;;;20.45;16.30;;;9.80;99.90;;;;;;5074246;28;20051;-84
2024/03/04 02:30:08;;;;;;;22.77;16.27;;;9.70;99.90;;;;;;5086550;28;20017;-84
2024/03/04 02:32:38;;;;;;;21.02;15.85;;;9.70;99.90;;;;;;5069842;28;20092;-84
2024/03/04 02:35:05;;;;;;;20.63;14.95;;;9.70;99.90;;;;;;5090404;28;20023;-84
2024/03/04 02:37:37;;;;;;;20.95;15.13;;;9.70;99.90;;;;;;5093203;28;20596;-85
2024/03/04 02:40:07;;;;;;;22.05;14.98;;;9.70;99.90;;;;;;5099902;28;20023;-83
2024/03/04 02:42:36;;;;;;;25.10;17.65;;;9.70;99.90;;;;;;5111059;28;20023;-83
2024/03/04 02:45:02;;;;;;;27.48;20.25;;;9.80;99.90;;;;;;5075436;28;20025;-84
2024/03/04 02:47:28;;;;;;;29.52;22.27;;;9.80;99.90;;;;;;5089982;28;20043;-83
2024/03/04 02:49:53;;;;;;;32.65;22.70;;;9.80;99.90;;;;;;5076413;28;20032;-83
2024/03/04 02:52:19;;;;;;;29.95;21.95;;;9.70;99.90;;;;;;5078143;28;20069;-83
2024/03/04 02:54:45;;;;;;;33.33;23.67;;;9.80;99.90;;;;;;5073050;28;20025;-82
2024/03/04 02:57:10;;;;;;;30.75;22.90;;;9.80;99.90;;;;;;5096684;28;20025;-84
2024/03/04 02:59:37;;;;;;;34.53;24.30;;;9.90;99.90;;;;;;5110024;28;20016;-83
2024/03/04 03:02:05;;;;;;;35.92;26.15;;;9.90;99.90;;;;;;5086514;28;20033;-83
2024/03/04 03:04:31;;;;;;;36.63;27.60;;;9.90;99.90;;;;;;5087019;28;20496;-84
2024/03/04 03:06:57;;;;;;;34.22;24.17;;;9.80;99.90;;;;;;5079302;28;20016;-82
2024/03/04 03:09:23;;;;;;;33.20;24.73;;;9.80;99.90;;;;;;5114395;28;20024;-83
2024/03/04 03:11:49;;;;;;;30.98;22.67;;;9.70;99.90;;;;;;5073812;28;20033;-83
2024/03/04 03:14:15;;;;;;;27.48;20.52;;;9.70;99.90;;;;;;5056101;28;20024;-84
2024/03/04 03:16:41;;;;;;;24.35;18.17;;;9.60;99.90;;;;;;5080447;28;20449;-84
2024/03/04 03:19:06;;;;;;;25.90;17.30;;;9.60;99.90;;;;;;5057416;28;20028;-84
2024/03/04 03:21:33;;;;;;;26.55;19.23;;;9.60;99.90;;;;;;5055832;28;20025;-84
2024/03/04 03:24:00;;;;;;;24.38;17.48;;;9.60;99.90;;;;;;5055785;28;20515;-83
2024/03/04 03:26:26;;;;;;;21.92;15.13;;;9.60;99.90;;;;;;5070857;28;20095;-84
2024/03/04 03:28:52;;;;;;;19.25;14.50;;;9.60;99.90;;;;;;5093923;28;20032;-84
2024/03/04 03:31:23;;;;;;;22.13;13.23;;;9.60;99.90;;;;;;5075643;28;20025;-84
2024/03/04 03:33:48;;;;;;;16.95;11.75;;;9.60;99.90;;;;;;5075852;28;20463;-84
2024/03/04 03:36:14;;;;;;;17.38;11.40;;;9.60;99.90;;;;;;5075439;28;20116;-84
2024/03/04 03:38:40;;;;;;;13.57;9.98;;;9.60;99.90;;;;;;5059023;28;20030;-84
2024/03/04 03:41:05;;;;;;;15.45;10.45;;;9.60;99.90;;;;;;5092330;28;20060;-85
2024/03/04 03:43:31;;;;;;;15.13;8.73;;;9.60;99.90;;;;;;5075445;28;20093;-84
2024/03/04 03:45:57;;;;;;;14.48;8.63;;;9.60;99.90;;;;;;5092419;28;20096;-84
2024/03/04 03:48:25;;;;;;;9.88;6.85;;;9.50;99.90;;;;;;5075229;28;20024;-84
2024/03/04 03:50:51;;;;;;;9.07;6.35;;;9.50;99.90;;;;;;5092402;28;20028;-83
2024/03/04 03:53:17;;;;;;;11.52;6.45;;;9.50;99.90;;;;;;5058913;28;20430;-84
2024/03/04 03:55:46;;;;;;;9.23;5.75;;;9.40;99.90;;;;;;5092072;28;20063;-84
2024/03/04 03:58:11;;;;;;;11.23;6.22;;;9.40;99.90;;;;;;5058882;28;20050;-83
2024/03/04 04:00:39;;;;;;;10.20;6.20;;;9.40;99.90;;;;;;5075546;28;20024;-83
2024/03/04 04:03:05;;;;;;;9.82;5.88;;;9.40;99.90;;;;;;5059263;28;20102;-84
2024/03/04 04:05:30;;;;;;;9.48;5.45;;;9.30;99.90;;;;;;5075768;28;20048;-83
2024/03/04 04:07:57;;;;;;;8.55;5.32;;;9.30;99.90;;;;;;5092501;28;20475;-83
2024/03/04 04:10:23;;;;;;;9.10;4.93;;;9.20;99.90;;;;;;5061665;28;20024;-84
2024/03/04 04:12:51;;;;;;;7.25;4.65;;;9.20;99.90;;;;;;5097252;28;20035;-84
2024/03/04 04:15:18;;;;;;;7.63;5.05;;;9.20;99.90;;;;;;5079447;28;20116;-84
2024/03/04 04:17:46;;;;;;;10.80;5.60;;;9.20;99.90;;;;;;5079497;28;20028;-84
2024/03/04 04:20:13;;;;;;;9.10;5.95;;;9.20;99.90;;;;;;5098013;28;20028;-84
2024/03/04 04:22:39;;;;;;;6.82;5.15;;;9.30;99.90;;;;;;5097508;28;20052;-84
2024/03/04 04:25:05;;;;;;;12.20;5.70;;;9.30;99.90;;;;;;5111876;28;20043;-87
2024/03/04 04:27:30;;;;;;;9.38;5.20;;;9.30;99.90;;;;;;5120934;28;20083;-84
2024/03/04 04:29:56;;;;;;;8.52;5.53;;;9.30;99.90;;;;;;5120815;28;20009;-83
2024/03/04 04:32:22;;;;;;;9.00;5.35;;;9.30;99.90;;;;;;5119646;28;20032;-83
2024/03/04 04:34:47;;;;;;;11.95;5.93;;;9.40;99.90;;;;;;5101791;28;20107;-83
2024/03/04 04:37:14;;;;;;;13.07;6.63;;;9.30;99.90;;;;;;5097463;28;20416;-84
2024/03/04 04:39:40;;;;;;;12.10;6.55;;;9.30;99.90;;;;;;5095418;28;20024;-83
2024/03/04 04:42:07;;;;;;;11.07;6.15;;;9.20;99.90;;;;;;5095282;28;20051;-84
2024/03/04 04:44:33;;;;;;;11.07;5.82;;;9.20;99.90;;;;;;5096500;28;20048;-84
2024/03/04 04:46:59;;;;;;;10.60;6.13;;;9.30;99.90;;;;;;5078381;28;20076;-84
2024/03/04 04:49:24;;;;;;;9.55;6.05;;;9.20;99.90;;;;;;5078301;28;20028;-84
2024/03/04 04:51:50;;;;;;;9.77;6.00;;;9.30;99.90;;;;;;5078652;28;20464;-84
2024/03/04 04:54:16;;;;;;;11.40;6.25;;;9.30;99.90;;;;;;5096795;28;20039;-84
2024/03/04 04:56:42;;;;;;;8.75;5.55;;;9.30;99.90;;;;;;5077808;28;20032;-84
2024/03/04 04:59:08;;;;;;;10.88;5.70;;;9.40;99.90;;;;;;5095998;28;20095;-84
2024/03/04 05:01:34;;;;;;;9.77;6.05;;;9.40;99.90;;;;;;5092387;28;20115;-84
2024/03/04 05:04:01;;;;;;;9.90;5.95;;;9.40;99.90;;;;;;5080039;28;20061;-84
2024/03/04 05:06:26;;;;;;;9.60;5.60;;;9.40;99.90;;;;;;5074822;28;20429;-83
2024/03/04 05:08:52;;;;;;;9.60;5.93;;;9.40;99.90;;;;;;5094829;28;20075;-83
2024/03/04 05:11:20;;;;;;;9.52;6.28;;;9.40;99.90;;;;;;5092385;28;20029;-83
2024/03/04 05:13:48;;;;;;;10.18;6.03;;;9.50;99.90;;;;;;5095944;28;20113;-83
2024/03/04 05:16:14;;;;;;;10.82;6.20;;;9.40;99.90;;;;;;5094439;28;20028;-83
2024/03/04 05:18:40;;;;;;;11.80;6.93;;;9.40;99.90;;;;;;5094506;28;20135;-84
2024/03/04 05:21:06;;;;;;;10.25;6.25;;;9.40;99.90;;;;;;5094484;28;20063;-85
2024/03/04 05:23:32;;;;;;;8.05;5.72;;;9.50;99.90;;;;;;5073614;28;20388;-83
2024/03/04 05:25:58;;;;;;;9.15;5.80;;;9.50;99.90;;;;;;5058299;28;20078;-84
2024/03/04 05:28:24;;;;;;;8.48;5.80;;;9.50;99.90;;;;;;5078521;28;20106;-84
2024/03/04 05:30:50;;;;;;;10.73;5.95;;;9.50;99.90;;;;;;5041588;28;20024;-84
2024/03/04 05:33:16;;;;;;;8.68;6.00;;;9.60;99.90;;;;;;5075659;28;20097;-86
2024/03/04 05:35:42;;;;;;;6.85;4.88;;;9.60;99.90;;;;;;5074214;28;20124;-83
2024/03/04 05:38:08;;;;;;;9.93;6.20;;;9.60;99.90;;;;;;5061155;28;20169;-84
2024/03/04 05:40:33;;;;;;;9.02;5.53;;;9.60;99.90;;;;;;5059610;28;20375;-82
2024/03/04 05:42:59;;;;;;;9.20;5.40;;;9.50;99.90;;;;;;5072601;28;20039;-84
2024/03/04 05:45:25;;;;;;;8.77;4.68;;;9.40;99.90;;;;;;5084070;28;20529;-83
2024/03/04 05:47:50;;;;;;;9.02;4.45;;;9.40;99.90;;;;;;5062479;28;20392;-82
2024/03/04 05:50:17;;;;;;;6.47;4.60;;;9.40;99.90;;;;;;5091593;28;20031;-82
2024/03/04 05:52:46;;;;;;;6.90;4.20;;;9.40;99.90;;;;;;5082682;28;20102;-84
2024/03/04 05:55:13;;;;;;;9.18;3.95;;;9.40;99.90;;;;;;5098351;28;20029;-83
2024/03/04 05:57:44;;;;;;;5.88;3.75;;;9.50;99.90;;;;;;5106405;28;20044;-82
2024/03/04 06:00:15;;;;;;;8.38;4.60;;;9.40;99.90;;;;;;5103468;28;20027;-84
2024/03/04 06:02:44;;;;;;;7.57;3.88;;;9.40;99.90;;;;;;5102249;28;20028;-83
2024/03/04 06:05:19;;;;;;;7.18;4.18;;;9.40;99.90;;;;;;5058154;28;20035;-83
2024/03/04 06:07:45;;;;;;;4.43;3.45;;;9.40;99.90;;;;;;5060317;28;20035;-84
2024/03/04 06:10:17;;;;;;;6.43;3.72;;;9.50;99.90;;;;;;5077467;28;20514;-85
2024/03/04 06:12:45;;;;;;;8.05;3.80;;;9.50;99.90;;;;;;5087761;28;20051;-83
2024/03/04 06:15:11;;;;;;;7.10;3.75;;;9.50;99.90;;;;;;5086707;28;20460;-84
2024/03/04 06:17:36;;;;;;;6.28;3.28;;;9.50;99.90;;;;;;5074327;28;20031;-83
2024/03/04 06:20:03;;;;;;;6.32;3.60;;;9.50;99.90;;;;;;5093570;28;20032;-84
2024/03/04 06:22:33;;;;;;;5.28;3.05;;;9.50;99.90;;;;;;5068249;28;20047;-84
2024/03/04 06:24:59;;;;;;;4.90;2.95;;;9.40;99.90;;;;;;5063087;28;20032;-84
2024/03/04 06:27:24;;;;;;;4.82;3.05;;;9.40;99.90;;;;;;5072231;28;20484;-83
2024/03/04 06:29:50;;;;;;;7.45;3.00;;;9.40;99.90;;;;;;5062273;28;20025;-85
2024/03/04 06:32:16;;;;;;;5.50;3.10;;;9.30;99.90;;;;;;5046438;28;20476;-84
2024/03/04 06:34:41;;;;;;;5.97;3.28;;;9.30;99.90;;;;;;5083095;28;20028;-85
2024/03/04 06:37:07;;;;;;;5.30;3.20;;;9.20;99.90;;;;;;5069390;28;20063;-84
2024/03/04 06:39:34;;;;;;;4.00;2.35;;;9.30;99.90;;;;;;5073287;28;20036;-85
2024/03/04 06:41:59;;;;;;;6.00;3.00;;;9.30;99.90;;;;;;5092839;28;20025;-83
2024/03/04 06:44:25;;;;;;;5.65;2.85;;;9.20;99.90;;;;;;5076144;28;20032;-84
2024/03/04 06:46:51;;;;;;;4.57;2.65;;;9.20;99.90;;;;;;5059126;28;20085;-84
2024/03/04 06:49:16;;;;;;;6.10;2.97;;;9.30;99.90;;;;;;5071499;28;20454;-84
2024/03/04 06:51:42;;;;;;;3.72;2.72;;;9.30;99.90;;;;;;5068615;28;20396;-83
2024/03/04 06:54:11;;;;;;;4.05;2.22;;;9.30;99.90;;;;;;5046912;28;20063;-84
2024/03/04 06:56:37;;;;;;;4.72;2.65;;;9.30;99.90;;;;;;5073891;28;20060;-84
2024/03/04 06:59:03;;;;;;;5.22;2.70;;;9.30;99.90;;;;;;5073202;28;20048;-84
2024/03/04 07:01:29;;;;;;;4.65;2.75;;;9.30;99.90;;;;;;5056146;28;20025;-84
2024/03/04 07:03:55;;;;;;;5.03;2.60;;;9.30;99.90;;;;;;5093384;28;20444;-83
2024/03/04 07:06:22;;;;;;;4.35;2.50;;;9.20;99.90;;;;;;5071644;28;20036;-83
2024/03/04 07:08:47;;;;;;;4.15;2.60;;;9.20;99.90;;;;;;5063770;28;20035;-83
2024/03/04 07:11:13;;;;;;;4.88;2.75;;;9.20;99.90;;;;;;5039895;28;20033;-83
2024/03/04 07:13:43;;;;;;;4.47;3.20;;;9.30;99.90;;;;;;5082850;28;20028;-84
2024/03/04 07:16:11;;;;;;;5.78;2.75;;;9.30;99.90;;;;;;5090678;28;20352;-84
2024/03/04 07:18:37;;;;;;;5.25;2.75;;;9.30;99.90;;;;;;5076765;28;20024;-84
2024/03/04 07:21:03;;;;;;;5.13;2.83;;;9.30;99.90;;;;;;5093648;28;20035;-83
2024/03/04 07:23:28;;;;;;;4.22;2.83;;;9.40;99.90;;;;;;5086400;28;20044;-84
2024/03/04 07:25:54;;;;;;;5.13;3.15;;;9.40;99.90;;;;;;5097423;28;20035;-83
2024/03/04 07:28:20;;;;;;;5.00;3.20;;;9.40;99.90;;;;;;5102547;28;20051;-84
2024/03/04 07:30:46;;;;;;;4.90;2.95;;;9.40;99.90;;;;;;5084099;28;20027;-84
2024/03/04 07:33:13;;;;;;;6.00;3.05;;;9.30;99.90;;;;;;5082405;28;20024;-84
2024/03/04 07:35:39;;;;;;;5.55;2.95;;;9.30;99.90;;;;;;5072674;28;20028;-84
2024/03/04 07:38:05;;;;;;;7.10;3.00;;;9.40;99.90;;;;;;5072237;28;20366;-83
2024/03/04 07:40:31;;;;;;;5.32;3.30;;;9.40;99.90;;;;;;5077006;28;20020;-83
2024/03/04 07:42:57;;;;;;;5.25;3.28;;;9.40;99.90;;;;;;5071819;28;20468;-83
2024/03/04 07:45:23;;;;;;;5.53;3.10;;;9.50;99.90;;;;;;5052815;28;20059;-83
2024/03/04 07:47:48;;;;;;;5.03;3.15;;;9.50;99.90;;;;;;5080506;28;20016;-83
2024/03/04 07:50:14;;;;;;;4.28;3.15;;;9.40;99.90;;;;;;5093373;28;20082;-83
2024/03/04 07:52:40;;;;;;;5.22;3.28;;;9.40;99.90;;;;;;5077949;28;20027;-85
2024/03/04 07:55:11;;;;;;;6.20;3.28;;;9.40;99.90;;;;;;5096184;28;20031;-83
2024/03/04 07:57:39;;;;;;;6.40;3.63;;;9.40;99.90;;;;;;5061042;28;20040;-83
2024/03/04 08:00:06;;;;;;;6.22;3.30;;;9.50;99.90;;;;;;5059464;28;20511;-83
2024/03/04 08:02:32;;;;;;;4.95;3.45;;;9.50;99.90;;;;;;5075991;28;20077;-83
2024/03/04 08:05:01;;;;;;;4.63;3.65;;;9.40;99.90;;;;;;5077617;28;20037;-84
2024/03/04 08:07:26;;;;;;;5.07;3.47;;;9.40;99.90;;;;;;5087329;28;20138;-83
2024/03/04 08:09:52;;;;;;;5.95;3.75;;;9.50;99.90;;;;;;5100332;28;20094;-83
2024/03/04 08:12:18;;;;;;;5.82;3.40;;;9.40;99.90;;;;;;5100330;28;20532;-83
2024/03/04 08:14:43;;;;;;;6.07;3.75;;;9.50;99.90;;;;;;5080525;28;20456;-84
2024/03/04 08:17:10;;;;;;;6.13;3.47;;;9.60;99.90;;;;;;5077964;28;20032;-84
2024/03/04 08:19:36;;;;;;;7.47;3.42;;;9.60;99.90;;;;;;5067988;28;20024;-84
2024/03/04 08:22:03;;;;;;;8.27;3.20;;;9.60;99.90;;;;;;5095508;28;20452;-84
2024/03/04 08:24:29;;;;;;;5.32;3.42;;;9.70;99.90;;;;;;5095820;28;20044;-84
2024/03/04 08:26:54;;;;;;;6.10;3.40;;;9.70;99.90;;;;;;5076526;28;20079;-83
2024/03/04 08:29:21;;;;;;;6.90;3.65;;;9.80;99.90;;;;;;5078783;28;20035;-84
2024/03/04 08:31:47;;;;;;;6.13;3.22;;;9.80;99.90;;;;;;5076887;28;20027;-84
2024/03/04 08:34:14;;;;;;;6.03;3.30;;;9.90;99.90;;;;;;5079720;28;20057;-83
2024/03/04 08:36:40;;;;;;;5.47;2.88;;;10.00;99.90;;;;;;5075338;28;20017;-84
2024/03/04 08:39:05;;;;;;;7.63;3.35;;;10.00;99.90;;;;;;5075857;28;20037;-83
2024/03/04 08:41:31;;;;;;;7.55;3.55;;;10.00;99.90;;;;;;5094121;28;20016;-84
2024/03/04 08:43:59;;;;;;;4.70;2.92;;;10.10;99.90;;;;;;5095662;28;20040;-83
2024/03/04 08:46:25;;;;;;;6.03;2.75;;;10.00;99.90;;;;;;5091077;28;20078;-83
2024/03/04 08:48:51;;;;;;;7.60;2.53;;;10.00;99.90;;;;;;5059158;28;20522;-83
2024/03/04 08:51:19;;;;;;;3.97;2.47;;;10.10;99.90;;;;;;5061098;28;20036;-84
2024/03/04 08:53:45;;;;;;;3.97;2.40;;;10.00;99.90;;;;;;5089348;28;20029;-83
2024/03/04 08:56:11;;;;;;;4.97;2.38;;;10.10;99.90;;;;;;5066136;28;20034;-83
2024/03/04 08:58:36;;;;;;;6.15;2.53;;;10.20;99.90;;;;;;5066695;28;20035;-84
2024/03/04 09:01:03;;;;;;;4.47;2.72;;;10.20;99.90;;;;;;5098362;28;20051;-83
2024/03/04 09:03:29;;;;;;;4.47;2.30;;;10.30;99.90;;;;;;5053000;28;20068;-83
2024/03/04 09:05:54;;;;;;;3.58;2.10;;;10.30;99.90;;;;;;5058611;28;20058;-83
2024/03/04 09:08:22;;;;;;;3.25;2.33;;;10.30;99.90;;;;;;5075176;28;20077;-84
2024/03/04 09:10:49;;;;;;;4.28;2.08;;;10.40;99.90;;;;;;5075251;28;20380;-83
2024/03/04 09:13:16;;;;;;;3.78;2.25;;;10.50;99.90;;;;;;5076036;28;20055;-83
2024/03/04 09:15:42;;;;;;;5.30;2.70;;;10.50;99.90;;;;;;5075131;28;20036;-83
2024/03/04 09:18:07;;;;;;;3.95;1.83;;;10.60;99.90;;;;;;5074343;28;20029;-83
2024/03/04 09:20:33;;;;;;;4.07;1.90;;;10.70;99.90;;;;;;5057687;28;20027;-84
2024/03/04 09:22:59;;;;;;;3.45;1.98;;;10.70;99.90;;;;;;5074064;28;20084;-84
2024/03/04 09:25:25;;;;;;;3.47;1.98;;;10.80;99.90;;;;;;5074666;28;20127;-84
2024/03/04 09:27:50;;;;;;;4.53;2.03;;;10.80;99.90;;;;;;5074487;28;20087;-83
2024/03/04 09:30:16;;;;;;;4.35;1.92;;;10.80;99.90;;;;;;5058004;28;20024;-83
2024/03/04 09:32:42;;;;;;;2.50;1.50;;;10.90;99.90;;;;;;5041369;28;20143;-83
2024/03/04 09:35:08;;;;;;;2.45;1.50;;;10.90;99.90;;;;;;5041063;28;20056;-84
2024/03/04 09:37:34;;;;;;;5.60;1.95;;;10.90;99.90;;;;;;5040898;28;20060;-84
2024/03/04 09:39:59;;;;;;;2.95;1.73;;;10.90;99.90;;;;;;5057119;28;20090;-84
2024/03/04 09:42:30;;;;;;;3.05;1.83;;;10.90;99.90;;;;;;5057629;28;20366;-83
2024/03/04 09:44:57;;;;;;;4.60;1.52;;;10.90;99.90;;;;;;5074195;28;20025;-84
2024/03/04 09:47:23;;;;;;;2.03;1.50;;;10.90;99.90;;;;;;5040671;28;20057;-83
2024/03/04 09:49:51;;;;;;;3.08;2.05;;;10.90;99.90;;;;;;5057330;28;20052;-83
2024/03/04 09:52:19;;;;;;;2.95;1.80;;;11.00;99.90;;;;;;5073980;28;20099;-82
2024/03/04 09:54:46;;;;;;;3.30;1.65;;;11.00;99.90;;;;;;5057593;28;20089;-83
2024/03/04 09:57:11;;;;;;;5.07;1.85;;;11.00;99.90;;;;;;5073596;28;20024;-83
2024/03/04 09:59:37;;;;;;;5.30;1.90;;;10.90;99.90;;;;;;5073883;28;20046;-83
2024/03/04 10:02:05;;;;;;;6.43;3.00;;;10.90;99.90;;;;;;5057437;28;20028;-84
2024/03/04 10:04:31;;;;;;;5.03;1.85;;;10.90;99.90;;;;;;5057316;28;20025;-83
2024/03/04 10:07:00;;;;;;;5.50;2.28;;;10.80;99.90;;;;;;5072991;28;20078;-84
2024/03/04 10:09:27;;;;;;;3.83;1.70;;;10.90;99.90;;;;;;5058052;28;20111;-84
2024/03/04 10:11:53;;;;;;;4.75;1.88;;;10.80;99.90;;;;;;5040819;28;20033;-83
2024/03/04 10:14:19;;;;;;;4.07;2.10;;;10.80;99.90;;;;;;5073615;28;20030;-83
2024/03/04 10:16:45;;;;;;;2.67;1.65;;;10.80;99.90;;;;;;5057106;28;20407;-84
2024/03/04 10:19:10;;;;;;;2.88;1.70;;;10.80;99.90;;;;;;5073923;28;20464;-84
2024/03/04 10:21:36;;;;;;;4.65;2.10;;;10.80;99.90;;;;;;5074996;28;20040;-84
2024/03/04 10:24:10;;;;;;;4.05;2.05;;;10.80;99.90;;;;;;5059178;28;20036;-84
2024/03/04 10:26:43;;;;;;;4.50;1.98;;;10.90;99.90;;;;;;5096394;28;20024;-82
2024/03/04 10:29:09;;;;;;;3.55;1.40;;;11.00;99.90;;;;;;5097066;28;20009;-85
2024/03/04 10:31:40;;;;;;;5.00;1.85;;;11.00;99.90;;;;;;5101088;28;20020;-85
2024/03/04 10:34:06;;;;;;;5.55;1.85;;;11.00;99.90;;;;;;5098391;28;20044;-83
2024/03/04 10:36:32;;;;;;;5.22;2.10;;;11.10;99.90;;;;;;5084506;28;20383;-85
2024/03/04 10:39:00;;;;;;;3.25;1.67;;;11.00;99.90;;;;;;5072043;28;20063;-83
2024/03/04 10:41:32;;;;;;;3.95;1.63;;;11.00;99.90;;;;;;5073126;28;20016;-83
2024/03/04 10:43:58;;;;;;;3.42;1.50;;;11.00;99.90;;;;;;5092183;28;20032;-83
2024/03/04 10:46:25;;;;;;;6.55;1.70;;;11.10;99.90;;;;;;5055613;28;20024;-83
2024/03/04 10:48:52;;;;;;;3.25;1.17;;;11.20;99.90;;;;;;5081903;28;20024;-83
2024/03/04 10:51:18;;;;;;;2.45;1.20;;;11.40;99.90;;;;;;5086762;28;20096;-83
2024/03/04 10:53:44;;;;;;;3.45;1.45;;;11.40;99.90;;;;;;5092967;28;20047;-83
2024/03/04 10:56:16;;;;;;;3.28;1.60;;;11.40;99.90;;;;;;5072183;28;20037;-84
2024/03/04 10:58:43;;;;;;;4.32;1.58;;;11.50;99.90;;;;;;5073054;28;20102;-83
2024/03/04 11:01:14;;;;;;;3.17;1.63;;;11.50;99.90;;;;;;5080982;28;20051;-83
2024/03/04 11:03:49;;;;;;;5.03;1.58;;;11.50;99.90;;;;;;5084499;28;20039;-83
2024/03/04 11:06:20;;;;;;;2.72;1.35;;;11.60;99.90;;;;;;5091707;28;20026;-83
2024/03/04 11:09:00;;;;;;;3.65;1.50;;;11.60;99.90;;;;;;5093522;28;20025;-83
2024/03/04 11:11:31;;;;;;;2.78;1.23;;;11.70;99.90;;;;;;5098821;28;20049;-83
2024/03/04 11:14:09;;;;;;;4.50;1.77;;;11.70;99.90;;;;;;5114649;28;20042;-83
2024/03/04 11:17:09;;;;;;;4.28;1.40;;;11.80;99.90;;;;;;5092754;28;20069;-83
2024/03/04 11:19:46;;;;;;;3.15;1.52;;;11.90;99.90;;;;;;5111895;28;20016;-83
2024/03/04 11:22:13;;;;;;;3.35;1.10;;;11.90;99.90;;;;;;5103774;28;20029;-83
2024/03/04 11:24:41;;;;;;;2.45;1.05;;;12.00;99.90;;;;;;5093493;28;20052;-84
2024/03/04 11:27:07;;;;;;;1.48;0.90;;;12.10;99.90;;;;;;5082246;28;20056;-85
2024/03/04 11:29:35;;;;;;;3.90;1.33;;;12.10;99.90;;;;;;5072382;28;20021;-84
2024/03/04 11:32:05;;;;;;;2.47;0.82;;;12.10;99.90;;;;;;5082664;28;20027;-84
2024/03/04 11:34:51;;;;;;;2.13;0.88;;;12.20;99.90;;;;;;5102753;28;20016;-83
2024/03/04 11:37:16;;;;;;;1.70;0.70;;;12.20;99.90;;;;;;5077444;28;20110;-83
2024/03/04 11:39:43;;;;;;;1.50;0.73;;;12.30;99.90;;;;;;5072413;28;20473;-83
2024/03/04 11:42:29;;;;;;;1.30;0.60;;;12.30;99.90;;;;;;5055832;28;20029;-83
2024/03/04 11:44:56;;;;;;;1.20;0.55;;;12.40;99.90;;;;;;5096066;28;20031;-83
2024/03/04 11:47:28;;;;;;;1.48;0.60;;;12.40;99.90;;;;;;5095429;28;20030;-83
2024/03/04 11:49:55;;;;;;;2.83;0.63;;;12.40;99.90;;;;;;5096320;28;20020;-83
2024/03/04 11:52:23;;;;;;;1.65;0.60;;;12.50;99.90;;;;;;5096751;28;20023;-83
2024/03/04 11:54:49;;;;;;;2.45;0.60;;;12.50;99.90;;;;;;5115721;28;20020;-82
2024/03/04 11:57:16;;;;;;;0.98;0.38;;;12.50;99.90;;;;;;5098016;28;20093;-84
2024/03/04 11:59:56;;;;;;;0.90;0.60;;;12.60;99.90;;;;;;5114043;28;20011;-84
2024/03/04 12:02:22;;;;;;;1.13;0.60;;;12.70;99.90;;;;;;5137483;28;20028;-85
2024/03/04 12:04:48;;;;;;;1.83;0.68;;;12.60;99.90;;;;;;5137789;28;20768;-83
2024/03/04 12:07:14;;;;;;;3.88;1.35;;;12.70;99.90;;;;;;5120206;28;20004;-83
2024/03/04 12:09:41;;;;;;;3.75;1.67;;;12.70;99.90;;;;;;5109266;28;20028;-83
2024/03/04 12:12:11;;;;;;;4.10;1.25;;;12.70;99.90;;;;;;5096415;28;20027;-83
2024/03/04 12:14:36;;;;;;;4.57;1.45;;;12.70;99.90;;;;;;5114386;28;20028;-83
2024/03/04 12:17:07;;;;;;;4.15;1.40;;;12.70;99.90;;;;;;5095912;28;20024;-83
2024/03/04 12:19:33;;;;;;;2.30;1.38;;;12.80;99.90;;;;;;5095756;28;20024;-83
2024/03/04 12:22:00;;;;;;;3.38;1.40;;;12.80;99.90;;;;;;5095277;28;20054;-83
2024/03/04 12:24:26;;;;;;;2.55;1.45;;;12.80;99.90;;;;;;5095159;28;20087;-83
2024/03/04 12:26:56;;;;;;;2.35;1.10;;;12.90;99.90;;;;;;5095420;28;20475;-83
2024/03/04 12:29:25;;;;;;;1.88;1.30;;;12.90;99.90;;;;;;5112533;28;20023;-84
2024/03/04 12:31:55;;;;;;;3.33;1.33;;;12.90;99.90;;;;;;5116029;28;20039;-84
2024/03/04 12:34:21;;;;;;;1.73;1.10;;;12.90;99.90;;;;;;5115895;28;20032;-83
2024/03/04 12:36:50;;;;;;;3.20;1.00;;;12.90;99.90;;;;;;5099631;28;20424;-84
2024/03/04 12:39:19;;;;;;;2.45;1.10;;;13.00;99.90;;;;;;5099112;28;20118;-84
2024/03/04 12:41:51;;;;;;;2.72;1.00;;;13.00;99.90;;;;;;5099524;28;20034;-83
2024/03/04 12:44:21;;;;;;;2.05;1.00;;;13.00;99.90;;;;;;5115955;28;20071;-84
2024/03/04 12:46:48;;;;;;;1.92;1.00;;;13.00;99.90;;;;;;5115876;28;20111;-84